Etusivu
METAR-TAF:

METAR-TAF

Lentoasemat :

Tillamook, Oregon, Yhdysvallat

Leveyspiiri: 45-25-06N, Pituuspiiri: 123-48-52W, korkeus merenpinnasta: 11 m

Tämänhetkinen sää

Tämä raportti tehtiin 20 minuuttia sitten, kello 16.55 UTC
tyyntä
Lämpötila 13°C
Kosteus 77%
Ilmanpaine 1008 hPa
Näkyvyys: 16.1 km
Hajanaisia pilviä 2400 ft:n korkeudessa
Hajanaisia pilviä 3600 ft:n korkeudessa
Pilvistä 8000 ft:n korkeudessa

METAR: KTMK 191655Z AUTO 00000KT 10SM SCT024 SCT036 OVC080 13/09 A2978 RMK AO2

Aika: 10:15 (17:15 UTC)


TAF: puuttuu

Säähavainnot ja -ennusteet yli 4000 lentoasemalta (METAR- ja TAF-raportit).

Käytössä olevat sääasemat on merkitty karttaan keltaisilla ja punaisilla pisteillä.

Aseta hiiri pisteen päälle nähdäksesi sääaseman nimen.

Klikkaa sitten nähdäksesi säähavainnot ja -ennusteet.

Kartan vaihtaminen: klikkaa mustalla rastilla varustettuja vihreitä pisteitä, niin voit zoomata sisään; viivalla varustettua vihreää pistettä, niin voit zoomata ulos tai vihreitä nuolia, niin pääset viereisille kartoille.


METAR-TAF: